createdAt,value
2022-09-28T00:01:25.364Z,14.82
2022-09-28T00:03:54.983Z,14.43
2022-09-28T00:06:24.775Z,15.90
2022-09-28T00:08:52.328Z,17.38
2022-09-28T00:11:21.238Z,16.35
2022-09-28T00:13:53.798Z,17.27
2022-09-28T00:16:26.897Z,12.80
2022-09-28T00:18:55.088Z,13.05
2022-09-28T00:21:28.622Z,16.85
2022-09-28T00:24:19.070Z,17.45
2022-09-28T00:26:55.946Z,16.65
2022-09-28T00:29:29.981Z,17.77
2022-09-28T00:32:03.596Z,20.65
2022-09-28T00:34:36.961Z,16.30
2022-09-28T00:37:06.425Z,16.60
2022-09-28T00:39:34.328Z,14.65
2022-09-28T00:42:02.423Z,13.07
2022-09-28T00:44:55.202Z,16.52
2022-09-28T00:47:50.000Z,20.02
2022-09-28T00:50:32.425Z,17.23
2022-09-28T00:53:06.955Z,17.58
2022-09-28T00:55:44.905Z,20.63
2022-09-28T00:58:17.794Z,18.58
2022-09-28T01:00:44.834Z,21.17
2022-09-28T01:03:14.344Z,19.30
2022-09-28T01:05:41.541Z,19.30
2022-09-28T01:08:10.221Z,18.65
2022-09-28T01:10:38.884Z,21.00
2022-09-28T01:13:05.881Z,24.70
2022-09-28T01:15:43.655Z,20.27
2022-09-28T01:18:18.699Z,17.80
2022-09-28T01:21:05.453Z,18.30
2022-09-28T01:24:01.545Z,20.35
2022-09-28T01:26:44.167Z,20.90
2022-09-28T01:29:25.316Z,16.90
2022-09-28T01:32:22.504Z,18.08
2022-09-28T01:35:23.249Z,18.92
2022-09-28T01:38:14.597Z,16.45
2022-09-28T01:40:42.202Z,22.13
2022-09-28T01:43:20.945Z,17.65
2022-09-28T01:46:13.501Z,18.00
2022-09-28T01:49:03.656Z,18.73
2022-09-28T01:51:43.966Z,19.55
2022-09-28T01:54:35.852Z,15.70
2022-09-28T01:57:41.084Z,15.57
2022-09-28T02:00:15.015Z,13.55
2022-09-28T02:02:50.030Z,16.08
2022-09-28T02:05:31.028Z,14.18
2022-09-28T02:10:47.636Z,14.70
2022-09-28T02:13:54.164Z,17.65
2022-09-28T02:16:34.886Z,14.55
2022-09-28T02:19:03.537Z,16.30
2022-09-28T02:22:25.367Z,16.77
2022-09-28T02:25:04.197Z,16.25
2022-09-28T02:27:35.531Z,16.02
2022-09-28T02:30:05.362Z,13.32
2022-09-28T02:32:40.215Z,14.00
2022-09-28T02:35:13.069Z,15.07
2022-09-28T02:37:40.804Z,16.65
2022-09-28T02:40:22.455Z,11.70
2022-09-28T02:43:00.900Z,15.70
2022-09-28T02:45:53.695Z,18.10
2022-09-28T02:49:00.210Z,14.02
2022-09-28T02:51:34.937Z,11.48
2022-09-28T02:54:31.348Z,11.27
2022-09-28T02:57:08.546Z,11.80
2022-09-28T02:59:46.696Z,11.88
2022-09-28T03:02:59.428Z,13.00
2022-09-28T03:05:53.487Z,18.58
2022-09-28T03:08:43.117Z,9.95
2022-09-28T03:11:16.883Z,23.23
2022-09-28T03:13:48.036Z,26.02
2022-09-28T03:16:20.230Z,15.00
2022-09-28T03:18:49.398Z,12.77
2022-09-28T03:21:16.651Z,11.98
2022-09-28T03:23:43.646Z,11.50
2022-09-28T03:26:14.937Z,12.98
2022-09-28T03:28:42.325Z,14.95
2022-09-28T03:31:14.225Z,18.10
2022-09-28T03:33:41.289Z,14.30
2022-09-28T03:36:09.626Z,15.52
2022-09-28T03:38:37.517Z,14.57
2022-09-28T03:41:05.363Z,14.60
2022-09-28T03:43:35.732Z,20.00
2022-09-28T03:46:03.806Z,14.48
2022-09-28T03:48:36.012Z,14.57
2022-09-28T03:51:09.146Z,14.85
2022-09-28T03:53:37.023Z,17.50
2022-09-28T03:56:12.332Z,12.55
2022-09-28T03:58:40.187Z,16.27
2022-09-28T04:01:17.696Z,16.30
2022-09-28T04:03:47.491Z,19.15
2022-09-28T04:06:14.825Z,14.80
2022-09-28T04:08:43.610Z,26.55
2022-09-28T04:11:11.252Z,13.07
2022-09-28T04:13:39.202Z,14.70
2022-09-28T04:16:11.744Z,12.60
2022-09-28T04:18:40.145Z,13.35
2022-09-28T04:21:17.094Z,13.27
2022-09-28T04:23:53.243Z,14.63
2022-09-28T04:26:24.838Z,16.42
2022-09-28T04:29:10.599Z,14.73
2022-09-28T04:31:41.679Z,14.70
2022-09-28T04:34:09.216Z,12.63
2022-09-28T04:36:36.363Z,14.15
2022-09-28T04:39:03.608Z,16.13
2022-09-28T04:41:31.897Z,13.77
2022-09-28T04:43:59.388Z,15.38
2022-09-28T04:46:26.560Z,14.85
2022-09-28T04:49:13.687Z,14.52
2022-09-28T04:51:48.475Z,10.93
2022-09-28T04:54:15.438Z,13.00
2022-09-28T04:56:42.470Z,11.00
2022-09-28T04:59:09.991Z,15.98
2022-09-28T05:01:37.761Z,13.27
2022-09-28T05:04:25.955Z,14.63
2022-09-28T05:07:11.590Z,10.13
2022-09-28T05:09:39.313Z,15.55
2022-09-28T05:12:06.264Z,13.23
2022-09-28T05:14:33.120Z,11.93
2022-09-28T05:17:00.039Z,14.10
2022-09-28T05:19:27.269Z,14.43
2022-09-28T05:22:04.064Z,12.73
2022-09-28T05:24:36.426Z,14.35
2022-09-28T05:27:03.392Z,13.38
2022-09-28T05:29:32.352Z,14.07
2022-09-28T05:32:18.553Z,14.95
2022-09-28T05:34:57.005Z,12.43
2022-09-28T05:37:29.312Z,15.23
2022-09-28T05:39:57.530Z,12.20
2022-09-28T05:42:25.546Z,11.55
2022-09-28T05:44:53.073Z,18.08
2022-09-28T05:47:19.978Z,18.75
2022-09-28T05:49:46.932Z,18.45
2022-09-28T05:52:14.352Z,11.93
2022-09-28T05:54:41.504Z,12.63
2022-09-28T05:57:08.805Z,18.55
2022-09-28T05:59:36.141Z,10.57
2022-09-28T06:02:05.220Z,12.88
2022-09-28T06:04:32.645Z,11.85
2022-09-28T06:06:59.935Z,11.25
2022-09-28T06:09:27.685Z,12.40
2022-09-28T06:12:13.166Z,12.43
2022-09-28T06:14:49.337Z,11.77
2022-09-28T06:17:16.640Z,13.43
2022-09-28T06:19:48.224Z,14.88
2022-09-28T06:22:43.917Z,11.63
2022-09-28T06:25:11.211Z,11.52
2022-09-28T06:27:42.542Z,12.63
2022-09-28T06:30:10.226Z,13.43
2022-09-28T06:32:37.880Z,12.20
2022-09-28T06:35:06.337Z,12.57
2022-09-28T06:37:33.332Z,15.65
2022-09-28T06:40:01.980Z,22.23
2022-09-28T06:42:30.360Z,14.55
2022-09-28T06:45:21.840Z,13.43
2022-09-28T06:50:51.866Z,13.90
2022-09-28T06:53:32.451Z,17.40
2022-09-28T06:56:11.350Z,11.40
2022-09-28T06:58:38.308Z,9.70
2022-09-28T07:01:05.774Z,11.60
2022-09-28T07:04:02.270Z,11.63
2022-09-28T07:06:48.350Z,11.40
2022-09-28T07:09:35.080Z,8.93
2022-09-28T07:12:19.885Z,8.40
2022-09-28T07:15:12.917Z,9.18
2022-09-28T07:17:56.257Z,10.82
2022-09-28T07:20:29.392Z,9.80
2022-09-28T07:23:12.126Z,10.25
2022-09-28T07:26:07.892Z,9.30
2022-09-28T07:29:02.043Z,9.63
2022-09-28T07:31:33.869Z,10.43
2022-09-28T07:34:23.021Z,8.02
2022-09-28T07:36:59.535Z,12.02
2022-09-28T07:39:26.464Z,7.47
2022-09-28T07:41:56.744Z,11.68
2022-09-28T07:44:27.890Z,6.20
2022-09-28T07:46:55.227Z,5.85
2022-09-28T07:49:58.243Z,5.50
2022-09-28T07:52:46.046Z,5.65
2022-09-28T07:55:26.039Z,4.13
2022-09-28T07:58:08.404Z,4.10
2022-09-28T08:01:08.410Z,2.80
2022-09-28T08:03:36.804Z,3.35
2022-09-28T08:06:11.127Z,2.38
2022-09-28T08:08:44.642Z,2.45
2022-09-28T08:11:16.759Z,3.03
2022-09-28T08:14:02.464Z,2.67
2022-09-28T08:17:01.986Z,3.05
2022-09-28T08:20:01.207Z,4.07
2022-09-28T08:22:32.173Z,2.03
2022-09-28T08:25:00.198Z,2.45
2022-09-28T08:27:27.387Z,2.00
2022-09-28T08:29:54.624Z,2.28
2022-09-28T08:32:39.128Z,3.25
2022-09-28T08:35:26.429Z,2.25
2022-09-28T08:38:12.387Z,2.92
2022-09-28T08:41:39.193Z,1.55
2022-09-28T08:44:26.751Z,4.10
2022-09-28T08:47:59.355Z,2.35
2022-09-28T08:50:34.055Z,1.00
2022-09-28T08:53:35.019Z,2.08
2022-09-28T08:56:49.228Z,1.23
2022-09-28T08:59:26.053Z,1.83
2022-09-28T09:02:03.776Z,2.47
2022-09-28T09:04:33.918Z,2.97
2022-09-28T09:07:37.781Z,7.07
2022-09-28T09:10:28.852Z,1.08
2022-09-28T09:13:31.513Z,1.20
2022-09-28T09:16:03.091Z,1.35
2022-09-28T09:19:43.315Z,1.38
2022-09-28T09:22:40.919Z,1.20
2022-09-28T09:25:28.609Z,1.45
2022-09-28T09:28:24.958Z,1.83
2022-09-28T09:31:24.146Z,2.67
2022-09-28T09:34:16.369Z,2.17
2022-09-28T09:37:27.384Z,0.70
2022-09-28T09:44:47.965Z,0.95
2022-09-28T09:47:59.154Z,1.35
2022-09-28T09:50:52.894Z,1.20
2022-09-28T09:53:38.470Z,2.30
2022-09-28T09:56:19.507Z,0.35
2022-09-28T09:59:08.288Z,0.85
2022-09-28T10:01:56.776Z,0.88
2022-09-28T10:04:43.225Z,1.88
2022-09-28T10:07:41.392Z,2.38
2022-09-28T10:10:27.028Z,0.30
2022-09-28T10:13:00.359Z,3.25
2022-09-28T10:15:32.923Z,0.22
2022-09-28T10:18:16.044Z,1.13
2022-09-28T10:21:02.218Z,3.85
2022-09-28T10:23:56.291Z,0.50
2022-09-28T10:26:32.739Z,0.68
2022-09-28T10:29:04.486Z,0.90
2022-09-28T10:31:42.501Z,1.98
2022-09-28T10:34:30.944Z,0.40
2022-09-28T10:37:10.756Z,0.75
2022-09-28T10:39:56.348Z,0.75
2022-09-28T10:42:33.127Z,0.20
2022-09-28T10:45:22.506Z,1.65
2022-09-28T10:47:50.478Z,0.17
2022-09-28T10:50:27.560Z,0.40
2022-09-28T10:53:16.403Z,1.55
2022-09-28T10:56:21.940Z,0.50
2022-09-28T10:58:54.074Z,2.95
2022-09-28T11:01:34.431Z,0.40
2022-09-28T11:04:08.108Z,1.40
2022-09-28T11:06:39.449Z,0.60
2022-09-28T11:09:32.684Z,1.05
2022-09-28T11:12:07.238Z,1.13
2022-09-28T11:14:42.402Z,0.47
2022-09-28T11:17:38.858Z,0.88
2022-09-28T11:20:34.546Z,0.77
2022-09-28T11:23:30.366Z,0.20
2022-09-28T11:26:07.405Z,0.10
2022-09-28T11:28:41.235Z,0.28
2022-09-28T11:31:15.027Z,0.73
2022-09-28T11:34:41.876Z,2.30
2022-09-28T11:37:31.374Z,0.10
2022-09-28T11:40:36.569Z,2.60
2022-09-28T11:43:16.819Z,0.43
2022-09-28T11:46:09.639Z,0.30
2022-09-28T11:48:51.644Z,1.50
2022-09-28T11:51:30.329Z,0.80
2022-09-28T11:54:05.194Z,0.20
2022-09-28T11:56:39.216Z,0.70
2022-09-28T11:59:18.910Z,0.27
2022-09-28T12:02:05.126Z,0.13
2022-09-28T12:04:47.233Z,1.80
2022-09-28T12:07:26.760Z,0.93
2022-09-28T12:10:19.843Z,0.20
2022-09-28T12:13:01.765Z,1.23
2022-09-28T12:16:20.062Z,0.40
2022-09-28T12:19:01.759Z,2.53
2022-09-28T12:21:55.236Z,1.13
2022-09-28T12:24:28.814Z,0.15
2022-09-28T12:27:05.138Z,2.90
2022-09-28T12:29:50.042Z,0.52
2022-09-28T12:32:37.475Z,1.48
2022-09-28T12:35:23.281Z,0.20
2022-09-28T12:38:26.336Z,0.73
2022-09-28T12:41:05.677Z,2.42
2022-09-28T12:44:24.434Z,0.10
2022-09-28T12:47:22.447Z,0.55
2022-09-28T12:50:55.985Z,0.10
2022-09-28T12:53:48.908Z,1.00
2022-09-28T12:56:29.613Z,1.13
2022-09-28T12:59:27.544Z,1.75
2022-09-28T13:02:27.400Z,1.17
2022-09-28T13:05:31.867Z,0.30
2022-09-28T13:08:24.936Z,0.20
2022-09-28T13:11:22.726Z,2.65
2022-09-28T13:14:49.623Z,0.50
2022-09-28T13:17:53.639Z,0.20
2022-09-28T13:20:23.291Z,0.40
2022-09-28T13:23:15.083Z,1.00
2022-09-28T13:26:09.795Z,0.68
2022-09-28T13:28:38.712Z,0.60
2022-09-28T13:31:07.222Z,0.65
2022-09-28T13:33:41.413Z,0.20
2022-09-28T13:36:30.715Z,0.70
2022-09-28T13:39:00.568Z,0.57
2022-09-28T13:41:38.926Z,0.28
2022-09-28T13:44:49.558Z,0.30
2022-09-28T13:47:28.637Z,1.20
2022-09-28T13:50:26.966Z,1.13
2022-09-28T13:53:19.246Z,0.70
2022-09-28T13:56:30.460Z,1.23
2022-09-28T13:59:22.029Z,0.93
2022-09-28T14:02:53.929Z,0.38
2022-09-28T14:05:25.114Z,1.65
2022-09-28T14:08:17.349Z,0.30
2022-09-28T14:10:56.485Z,0.47
2022-09-28T14:13:41.530Z,2.05
2022-09-28T14:16:24.053Z,2.25
2022-09-28T14:19:17.118Z,2.15
2022-09-28T14:22:13.370Z,1.35
2022-09-28T14:25:34.083Z,0.50
2022-09-28T14:28:36.854Z,0.43
2022-09-28T14:31:12.463Z,0.68
2022-09-28T14:36:55.357Z,2.15
2022-09-28T14:39:51.658Z,1.80
2022-09-28T14:42:23.586Z,1.05
2022-09-28T14:45:06.257Z,1.80
2022-09-28T14:47:37.994Z,1.65
2022-09-28T14:50:27.181Z,2.70
2022-09-28T14:52:57.359Z,0.47
2022-09-28T14:55:33.130Z,2.35
2022-09-28T14:58:00.154Z,0.50
2022-09-28T15:00:30.435Z,0.13
2022-09-28T15:03:05.967Z,0.38
2022-09-28T15:05:44.468Z,0.47
2022-09-28T15:08:12.246Z,0.20
2022-09-28T15:10:48.567Z,1.13
2022-09-28T15:13:25.123Z,1.13
2022-09-28T15:16:15.927Z,1.35
2022-09-28T15:18:54.843Z,0.73
2022-09-28T15:21:22.632Z,2.92
2022-09-28T15:23:50.454Z,1.17
2022-09-28T15:26:32.458Z,0.38
2022-09-28T15:29:03.174Z,1.38
2022-09-28T15:31:35.816Z,0.43
2022-09-28T15:34:21.325Z,0.85
2022-09-28T15:36:48.490Z,0.28
2022-09-28T15:39:27.723Z,0.75
2022-09-28T15:41:54.816Z,0.32
2022-09-28T15:44:35.160Z,0.20
2022-09-28T15:47:19.215Z,0.20
2022-09-28T15:50:00.149Z,0.57
2022-09-28T15:52:36.472Z,0.17
2022-09-28T15:55:19.113Z,0.20
2022-09-28T15:57:47.430Z,0.20
2022-09-28T16:00:29.123Z,2.00
2022-09-28T16:03:05.459Z,1.55
2022-09-28T16:05:57.926Z,0.25
2022-09-28T16:08:31.573Z,0.80
2022-09-28T16:11:27.910Z,1.05
2022-09-28T16:14:06.694Z,0.35
2022-09-28T16:16:47.859Z,0.20
2022-09-28T16:19:28.539Z,1.15
2022-09-28T16:21:58.476Z,2.55
2022-09-28T16:24:38.313Z,0.77
2022-09-28T16:27:44.624Z,0.40
2022-09-28T16:30:27.355Z,0.82
2022-09-28T16:33:02.815Z,4.22
2022-09-28T16:35:40.752Z,1.33
2022-09-28T16:38:16.072Z,1.75
2022-09-28T16:40:53.838Z,3.97
2022-09-28T16:43:32.525Z,0.45
2022-09-28T16:46:16.040Z,0.35
2022-09-28T16:48:48.945Z,0.60
2022-09-28T16:51:19.834Z,0.40
2022-09-28T16:54:07.416Z,2.17
2022-09-28T16:56:36.338Z,1.30
2022-09-28T16:59:04.517Z,0.40
2022-09-28T17:01:31.733Z,0.43
2022-09-28T17:03:58.949Z,0.95
2022-09-28T17:06:26.681Z,0.75
2022-09-28T17:08:59.160Z,0.55
2022-09-28T17:11:26.117Z,0.73
2022-09-28T17:13:59.104Z,0.68
2022-09-28T17:19:24.542Z,4.95
2022-09-28T17:21:52.743Z,3.13
2022-09-28T17:24:20.640Z,0.75
2022-09-28T17:26:50.468Z,0.57
2022-09-28T17:29:18.808Z,0.35
2022-09-28T17:31:47.051Z,0.75
2022-09-28T17:34:19.689Z,1.90
2022-09-28T17:36:47.791Z,2.38
2022-09-28T17:39:18.814Z,0.90
2022-09-28T17:41:46.103Z,1.20
2022-09-28T17:44:16.038Z,0.90
2022-09-28T17:46:49.735Z,1.80
2022-09-28T17:49:17.362Z,3.85
2022-09-28T17:51:44.364Z,0.77
2022-09-28T17:54:13.579Z,2.75
2022-09-28T17:56:40.638Z,0.25
2022-09-28T17:59:13.282Z,4.13
2022-09-28T18:01:40.886Z,2.05
2022-09-28T18:04:15.875Z,2.35
2022-09-28T18:06:54.831Z,4.10
2022-09-28T18:09:25.351Z,2.97
2022-09-28T18:12:02.881Z,0.60
2022-09-28T18:14:30.169Z,0.57
2022-09-28T18:16:57.397Z,0.15
2022-09-28T18:19:27.475Z,3.00
2022-09-28T18:21:58.525Z,1.67
2022-09-28T18:24:25.675Z,2.65
2022-09-28T18:26:52.667Z,1.48
2022-09-28T18:29:19.619Z,1.20
2022-09-28T18:31:48.951Z,0.20
2022-09-28T18:34:15.982Z,0.68
2022-09-28T18:36:43.222Z,1.52
2022-09-28T18:39:10.288Z,3.60
2022-09-28T18:41:37.289Z,2.13
2022-09-28T18:44:04.267Z,2.30
2022-09-28T18:46:36.448Z,3.90
2022-09-28T18:49:04.906Z,6.95
2022-09-28T18:51:31.923Z,5.40
2022-09-28T18:54:00.561Z,4.18
2022-09-28T18:56:27.955Z,10.55
2022-09-28T18:58:54.936Z,7.30
2022-09-28T19:01:30.852Z,7.25
2022-09-28T19:04:06.749Z,10.02
2022-09-28T19:06:35.072Z,35.53
2022-09-28T19:09:02.619Z,72.75
2022-09-28T19:11:29.609Z,106.05
2022-09-28T19:13:56.539Z,49.50
2022-09-28T19:16:29.086Z,22.83
2022-09-28T19:18:58.148Z,21.90
2022-09-28T19:21:26.900Z,9.32
2022-09-28T19:23:55.412Z,5.25
2022-09-28T19:26:26.996Z,14.05
2022-09-28T19:28:58.543Z,2.17
2022-09-28T19:31:26.681Z,1.92
2022-09-28T19:33:53.670Z,3.72
2022-09-28T19:36:24.035Z,6.25
2022-09-28T19:38:52.978Z,6.20
2022-09-28T19:41:44.156Z,7.05
2022-09-28T19:44:26.106Z,13.27
2022-09-28T19:47:09.892Z,11.10
2022-09-28T19:49:39.979Z,8.48
2022-09-28T19:52:16.501Z,6.65
2022-09-28T19:54:56.494Z,4.45
2022-09-28T19:57:31.034Z,7.22
2022-09-28T20:00:02.488Z,2.00
2022-09-28T20:02:34.496Z,2.85
2022-09-28T20:05:01.507Z,2.30
2022-09-28T20:07:32.902Z,2.45
2022-09-28T20:10:00.159Z,0.80
2022-09-28T20:12:27.163Z,5.35
2022-09-28T20:14:54.276Z,3.80
2022-09-28T20:17:21.819Z,5.68
2022-09-28T20:19:51.029Z,5.32
2022-09-28T20:22:18.677Z,7.32
2022-09-28T20:24:45.540Z,3.55
2022-09-28T20:27:12.466Z,4.10
2022-09-28T20:29:39.349Z,4.10
2022-09-28T20:32:06.317Z,3.47
2022-09-28T20:34:33.945Z,3.90
2022-09-28T20:37:01.531Z,1.90
2022-09-28T20:39:28.780Z,3.13
2022-09-28T20:41:57.635Z,2.13
2022-09-28T20:44:24.827Z,2.83
2022-09-28T20:46:52.210Z,2.58
2022-09-28T20:49:19.257Z,1.88
2022-09-28T20:51:46.452Z,2.95
2022-09-28T20:54:13.348Z,5.32
2022-09-28T20:56:40.252Z,8.23
2022-09-28T20:59:11.148Z,2.55
2022-09-28T21:01:38.367Z,3.63
2022-09-28T21:04:07.402Z,1.50
2022-09-28T21:06:40.569Z,3.47
2022-09-28T21:09:09.263Z,1.67
2022-09-28T21:11:37.025Z,3.17
2022-09-28T21:14:06.693Z,1.58
2022-09-28T21:16:35.116Z,1.48
2022-09-28T21:19:03.530Z,1.85
2022-09-28T21:21:31.095Z,4.00
2022-09-28T21:23:59.366Z,3.75
2022-09-28T21:26:29.365Z,8.55
2022-09-28T21:29:02.503Z,2.33
2022-09-28T21:31:37.518Z,5.10
2022-09-28T21:34:07.443Z,1.90
2022-09-28T21:36:34.561Z,2.83
2022-09-28T21:39:01.482Z,3.42
2022-09-28T21:41:29.138Z,2.38
2022-09-28T21:43:56.183Z,6.70
2022-09-28T21:46:23.161Z,6.53
2022-09-28T21:48:53.586Z,1.80
2022-09-28T21:51:20.877Z,1.67
2022-09-28T21:53:49.205Z,2.50
2022-09-28T21:56:16.196Z,4.93
2022-09-28T21:58:43.043Z,1.58
2022-09-28T22:01:13.130Z,2.25
2022-09-28T22:03:41.535Z,2.60
2022-09-28T22:06:09.058Z,3.65
2022-09-28T22:08:37.339Z,1.83
2022-09-28T22:11:08.921Z,6.85
2022-09-28T22:13:41.059Z,1.55
2022-09-28T22:16:09.364Z,2.58
2022-09-28T22:18:36.639Z,1.92
2022-09-28T22:21:10.665Z,1.77
2022-09-28T22:23:38.966Z,1.80
2022-09-28T22:26:17.856Z,2.78
2022-09-28T22:28:51.786Z,5.05
2022-09-28T22:31:22.696Z,2.63
2022-09-28T22:33:49.763Z,4.72
2022-09-28T22:36:17.073Z,4.03
2022-09-28T22:38:44.919Z,4.13
2022-09-28T22:41:12.912Z,9.48
2022-09-28T22:43:39.809Z,2.00
2022-09-28T22:46:14.067Z,2.40
2022-09-28T22:48:42.492Z,3.33
2022-09-28T22:51:09.892Z,1.75
2022-09-28T22:53:36.923Z,2.13
2022-09-28T22:56:05.673Z,5.93
2022-09-28T22:58:34.074Z,2.42
2022-09-28T23:01:17.203Z,1.08
2022-09-28T23:03:44.902Z,8.07
2022-09-28T23:06:15.131Z,2.95
2022-09-28T23:08:42.156Z,5.07
2022-09-28T23:11:09.344Z,2.15
2022-09-28T23:13:37.564Z,3.80
2022-09-28T23:16:08.570Z,2.17
2022-09-28T23:18:38.541Z,2.83
2022-09-28T23:21:11.955Z,3.05
2022-09-28T23:23:39.192Z,1.65
2022-09-28T23:26:18.506Z,3.10
2022-09-28T23:28:46.008Z,7.00
2022-09-28T23:31:19.856Z,2.60
2022-09-28T23:33:47.154Z,2.15
2022-09-28T23:36:14.851Z,2.03
2022-09-28T23:38:41.977Z,6.82
2022-09-28T23:41:10.038Z,2.97
2022-09-28T23:43:37.362Z,3.22
2022-09-28T23:46:05.701Z,2.05
2022-09-28T23:48:33.380Z,3.30
2022-09-28T23:51:00.634Z,2.33
2022-09-28T23:53:28.359Z,2.47
2022-09-28T23:55:56.139Z,2.83
2022-09-28T23:58:23.102Z,2.00
